sensor_id;sensor_type;location;lat;lon;timestamp;P1;durP1;ratioP1;P2;durP2;ratioP2
43857;SDS011;29507;51.284;5.758;2022-10-17T00:00:25;8.20;;;4.75;;
43857;SDS011;29507;51.284;5.758;2022-10-17T00:02:50;8.25;;;4.95;;
43857;SDS011;29507;51.284;5.758;2022-10-17T00:05:18;11.82;;;5.30;;
43857;SDS011;29507;51.284;5.758;2022-10-17T00:07:44;8.13;;;4.70;;
43857;SDS011;29507;51.284;5.758;2022-10-17T00:10:09;8.30;;;4.57;;
43857;SDS011;29507;51.284;5.758;2022-10-17T00:12:35;10.82;;;5.28;;
43857;SDS011;29507;51.284;5.758;2022-10-17T00:15:01;10.27;;;5.25;;
43857;SDS011;29507;51.284;5.758;2022-10-17T00:17:29;11.90;;;5.75;;
43857;SDS011;29507;51.284;5.758;2022-10-17T00:19:55;12.93;;;5.93;;
43857;SDS011;29507;51.284;5.758;2022-10-17T00:22:23;8.77;;;5.20;;
43857;SDS011;29507;51.284;5.758;2022-10-17T00:24:49;10.52;;;4.88;;
43857;SDS011;29507;51.284;5.758;2022-10-17T00:27:14;7.68;;;4.93;;
43857;SDS011;29507;51.284;5.758;2022-10-17T00:29:40;11.82;;;5.50;;
43857;SDS011;29507;51.284;5.758;2022-10-17T00:32:05;8.48;;;5.30;;
43857;SDS011;29507;51.284;5.758;2022-10-17T00:34:31;11.80;;;5.15;;
43857;SDS011;29507;51.284;5.758;2022-10-17T00:36:57;10.27;;;5.38;;
43857;SDS011;29507;51.284;5.758;2022-10-17T00:39:22;12.68;;;5.68;;
43857;SDS011;29507;51.284;5.758;2022-10-17T00:41:48;10.68;;;6.03;;
43857;SDS011;29507;51.284;5.758;2022-10-17T00:46:55;9.68;;;5.57;;
43857;SDS011;29507;51.284;5.758;2022-10-17T00:49:21;10.02;;;5.63;;
43857;SDS011;29507;51.284;5.758;2022-10-17T00:51:53;9.38;;;6.07;;
43857;SDS011;29507;51.284;5.758;2022-10-17T00:54:22;11.02;;;5.53;;
43857;SDS011;29507;51.284;5.758;2022-10-17T00:56:51;9.80;;;6.22;;
43857;SDS011;29507;51.284;5.758;2022-10-17T00:59:17;11.43;;;6.05;;
43857;SDS011;29507;51.284;5.758;2022-10-17T01:01:55;9.67;;;6.10;;
43857;SDS011;29507;51.284;5.758;2022-10-17T01:04:25;11.15;;;6.38;;
43857;SDS011;29507;51.284;5.758;2022-10-17T01:06:51;12.50;;;6.45;;
43857;SDS011;29507;51.284;5.758;2022-10-17T01:09:16;11.18;;;6.57;;
43857;SDS011;29507;51.284;5.758;2022-10-17T01:11:49;12.30;;;5.75;;
43857;SDS011;29507;51.284;5.758;2022-10-17T01:22:42;10.07;;;5.75;;
43857;SDS011;29507;51.284;5.758;2022-10-17T01:25:28;13.00;;;6.68;;
43857;SDS011;29507;51.284;5.758;2022-10-17T01:28:31;13.40;;;6.35;;
43857;SDS011;29507;51.284;5.758;2022-10-17T01:31:16;11.60;;;6.60;;
43857;SDS011;29507;51.284;5.758;2022-10-17T01:34:08;11.35;;;6.28;;
43857;SDS011;29507;51.284;5.758;2022-10-17T01:47:40;13.77;;;8.15;;
43857;SDS011;29507;51.284;5.758;2022-10-17T01:50:09;16.60;;;8.43;;
43857;SDS011;29507;51.284;5.758;2022-10-17T01:52:42;14.77;;;7.30;;
43857;SDS011;29507;51.284;5.758;2022-10-17T01:55:19;17.30;;;7.95;;
43857;SDS011;29507;51.284;5.758;2022-10-17T01:57:50;16.08;;;7.35;;
43857;SDS011;29507;51.284;5.758;2022-10-17T02:00:21;14.32;;;8.00;;
43857;SDS011;29507;51.284;5.758;2022-10-17T02:02:51;15.53;;;7.93;;
43857;SDS011;29507;51.284;5.758;2022-10-17T02:05:21;11.55;;;7.07;;
43857;SDS011;29507;51.284;5.758;2022-10-17T02:07:51;16.83;;;7.95;;
43857;SDS011;29507;51.284;5.758;2022-10-17T02:10:29;15.95;;;8.23;;
43857;SDS011;29507;51.284;5.758;2022-10-17T02:16:11;13.68;;;7.55;;
43857;SDS011;29507;51.284;5.758;2022-10-17T02:18:45;17.90;;;8.20;;
43857;SDS011;29507;51.284;5.758;2022-10-17T02:21:14;17.88;;;9.20;;
43857;SDS011;29507;51.284;5.758;2022-10-17T02:23:48;16.10;;;8.30;;
43857;SDS011;29507;51.284;5.758;2022-10-17T02:29:29;15.60;;;7.88;;
43857;SDS011;29507;51.284;5.758;2022-10-17T02:32:02;14.00;;;8.27;;
43857;SDS011;29507;51.284;5.758;2022-10-17T02:34:32;17.17;;;8.40;;
43857;SDS011;29507;51.284;5.758;2022-10-17T02:37:04;17.00;;;8.82;;
43857;SDS011;29507;51.284;5.758;2022-10-17T02:39:32;14.40;;;8.53;;
43857;SDS011;29507;51.284;5.758;2022-10-17T02:42:01;17.45;;;8.82;;
43857;SDS011;29507;51.284;5.758;2022-10-17T02:44:30;18.05;;;9.20;;
43857;SDS011;29507;51.284;5.758;2022-10-17T02:47:02;18.13;;;9.73;;
43857;SDS011;29507;51.284;5.758;2022-10-17T02:49:37;14.70;;;8.95;;
43857;SDS011;29507;51.284;5.758;2022-10-17T02:54:53;15.95;;;9.35;;
43857;SDS011;29507;51.284;5.758;2022-10-17T02:57:39;14.45;;;9.15;;
43857;SDS011;29507;51.284;5.758;2022-10-17T03:00:10;18.88;;;8.73;;
43857;SDS011;29507;51.284;5.758;2022-10-17T03:03:17;17.77;;;9.18;;
43857;SDS011;29507;51.284;5.758;2022-10-17T03:05:42;19.98;;;9.77;;
43857;SDS011;29507;51.284;5.758;2022-10-17T03:08:08;18.77;;;9.48;;
43857;SDS011;29507;51.284;5.758;2022-10-17T03:10:35;18.92;;;9.43;;
43857;SDS011;29507;51.284;5.758;2022-10-17T03:13:01;18.80;;;9.52;;
43857;SDS011;29507;51.284;5.758;2022-10-17T03:15:26;14.48;;;8.95;;
43857;SDS011;29507;51.284;5.758;2022-10-17T03:17:52;20.13;;;9.02;;
43857;SDS011;29507;51.284;5.758;2022-10-17T03:20:17;17.30;;;9.25;;
43857;SDS011;29507;51.284;5.758;2022-10-17T03:22:43;16.15;;;9.10;;
43857;SDS011;29507;51.284;5.758;2022-10-17T03:25:08;17.20;;;9.40;;
43857;SDS011;29507;51.284;5.758;2022-10-17T03:27:34;13.65;;;9.55;;
43857;SDS011;29507;51.284;5.758;2022-10-17T03:29:59;18.45;;;9.23;;
43857;SDS011;29507;51.284;5.758;2022-10-17T03:32:25;15.57;;;8.57;;
43857;SDS011;29507;51.284;5.758;2022-10-17T03:34:50;16.27;;;9.02;;
43857;SDS011;29507;51.284;5.758;2022-10-17T03:37:16;19.85;;;9.38;;
43857;SDS011;29507;51.284;5.758;2022-10-17T03:39:42;19.10;;;8.57;;
43857;SDS011;29507;51.284;5.758;2022-10-17T03:42:07;13.35;;;8.60;;
43857;SDS011;29507;51.284;5.758;2022-10-17T03:44:33;15.75;;;8.43;;
43857;SDS011;29507;51.284;5.758;2022-10-17T03:46:58;14.73;;;7.60;;
43857;SDS011;29507;51.284;5.758;2022-10-17T03:49:24;11.98;;;7.70;;
43857;SDS011;29507;51.284;5.758;2022-10-17T03:51:50;14.50;;;7.20;;
43857;SDS011;29507;51.284;5.758;2022-10-17T03:54:15;14.40;;;8.13;;
43857;SDS011;29507;51.284;5.758;2022-10-17T03:56:41;16.80;;;7.38;;
43857;SDS011;29507;51.284;5.758;2022-10-17T03:59:08;11.02;;;7.30;;
43857;SDS011;29507;51.284;5.758;2022-10-17T04:01:36;10.63;;;6.70;;
43857;SDS011;29507;51.284;5.758;2022-10-17T04:04:02;11.35;;;6.63;;
43857;SDS011;29507;51.284;5.758;2022-10-17T04:06:28;12.15;;;7.15;;
43857;SDS011;29507;51.284;5.758;2022-10-17T04:08:53;10.88;;;6.25;;
43857;SDS011;29507;51.284;5.758;2022-10-17T04:11:19;11.02;;;6.20;;
43857;SDS011;29507;51.284;5.758;2022-10-17T04:13:45;10.18;;;6.18;;
43857;SDS011;29507;51.284;5.758;2022-10-17T04:16:12;11.77;;;6.50;;
43857;SDS011;29507;51.284;5.758;2022-10-17T04:18:40;11.73;;;6.53;;
43857;SDS011;29507;51.284;5.758;2022-10-17T04:21:06;9.95;;;6.13;;
43857;SDS011;29507;51.284;5.758;2022-10-17T04:23:33;12.30;;;6.00;;
43857;SDS011;29507;51.284;5.758;2022-10-17T04:25:59;8.85;;;5.90;;
43857;SDS011;29507;51.284;5.758;2022-10-17T04:28:26;8.60;;;5.55;;
43857;SDS011;29507;51.284;5.758;2022-10-17T04:30:58;12.25;;;6.00;;
43857;SDS011;29507;51.284;5.758;2022-10-17T04:33:25;10.77;;;6.45;;
43857;SDS011;29507;51.284;5.758;2022-10-17T04:35:55;8.52;;;5.70;;
43857;SDS011;29507;51.284;5.758;2022-10-17T04:38:21;12.70;;;5.78;;
43857;SDS011;29507;51.284;5.758;2022-10-17T04:40:47;12.02;;;5.82;;
43857;SDS011;29507;51.284;5.758;2022-10-17T04:43:12;9.30;;;5.55;;
43857;SDS011;29507;51.284;5.758;2022-10-17T04:45:38;14.13;;;6.22;;
43857;SDS011;29507;51.284;5.758;2022-10-17T04:48:03;12.20;;;5.78;;
43857;SDS011;29507;51.284;5.758;2022-10-17T04:50:29;8.13;;;5.38;;
43857;SDS011;29507;51.284;5.758;2022-10-17T04:52:55;10.82;;;5.38;;
43857;SDS011;29507;51.284;5.758;2022-10-17T04:55:20;8.40;;;5.07;;
43857;SDS011;29507;51.284;5.758;2022-10-17T04:57:46;11.93;;;5.93;;
43857;SDS011;29507;51.284;5.758;2022-10-17T05:00:11;10.00;;;4.88;;
43857;SDS011;29507;51.284;5.758;2022-10-17T05:02:37;10.32;;;5.43;;
43857;SDS011;29507;51.284;5.758;2022-10-17T05:05:03;9.45;;;5.15;;
43857;SDS011;29507;51.284;5.758;2022-10-17T05:07:29;11.82;;;5.30;;
43857;SDS011;29507;51.284;5.758;2022-10-17T05:09:54;10.35;;;5.50;;
43857;SDS011;29507;51.284;5.758;2022-10-17T05:12:20;9.13;;;4.80;;
43857;SDS011;29507;51.284;5.758;2022-10-17T05:14:45;10.13;;;4.85;;
43857;SDS011;29507;51.284;5.758;2022-10-17T05:17:11;11.90;;;4.45;;
43857;SDS011;29507;51.284;5.758;2022-10-17T05:19:36;6.70;;;4.32;;
43857;SDS011;29507;51.284;5.758;2022-10-17T05:22:02;9.70;;;5.07;;
43857;SDS011;29507;51.284;5.758;2022-10-17T05:24:27;8.40;;;4.65;;
43857;SDS011;29507;51.284;5.758;2022-10-17T05:26:53;7.57;;;4.60;;
43857;SDS011;29507;51.284;5.758;2022-10-17T05:29:18;7.80;;;4.40;;
43857;SDS011;29507;51.284;5.758;2022-10-17T05:31:44;10.02;;;4.72;;
43857;SDS011;29507;51.284;5.758;2022-10-17T05:34:09;10.65;;;4.55;;
43857;SDS011;29507;51.284;5.758;2022-10-17T05:36:35;10.65;;;5.10;;
43857;SDS011;29507;51.284;5.758;2022-10-17T05:39:00;9.13;;;5.22;;
43857;SDS011;29507;51.284;5.758;2022-10-17T05:41:26;8.35;;;4.68;;
43857;SDS011;29507;51.284;5.758;2022-10-17T05:43:52;7.13;;;4.45;;
43857;SDS011;29507;51.284;5.758;2022-10-17T05:46:17;7.90;;;5.18;;
43857;SDS011;29507;51.284;5.758;2022-10-17T05:48:43;10.18;;;5.65;;
43857;SDS011;29507;51.284;5.758;2022-10-17T05:51:09;10.40;;;4.15;;
43857;SDS011;29507;51.284;5.758;2022-10-17T05:53:36;10.70;;;4.30;;
43857;SDS011;29507;51.284;5.758;2022-10-17T05:56:04;8.55;;;4.85;;
43857;SDS011;29507;51.284;5.758;2022-10-17T05:58:32;10.87;;;4.70;;
43857;SDS011;29507;51.284;5.758;2022-10-17T06:01:02;8.15;;;4.32;;
43857;SDS011;29507;51.284;5.758;2022-10-17T06:03:29;7.30;;;4.60;;
43857;SDS011;29507;51.284;5.758;2022-10-17T06:05:55;7.10;;;4.13;;
43857;SDS011;29507;51.284;5.758;2022-10-17T06:08:26;8.10;;;4.13;;
43857;SDS011;29507;51.284;5.758;2022-10-17T06:10:52;10.88;;;3.90;;
43857;SDS011;29507;51.284;5.758;2022-10-17T06:13:17;9.27;;;5.28;;
43857;SDS011;29507;51.284;5.758;2022-10-17T06:15:43;6.95;;;4.20;;
43857;SDS011;29507;51.284;5.758;2022-10-17T06:18:09;11.00;;;4.63;;
43857;SDS011;29507;51.284;5.758;2022-10-17T06:20:35;7.40;;;4.15;;
43857;SDS011;29507;51.284;5.758;2022-10-17T06:23:01;9.15;;;3.90;;
43857;SDS011;29507;51.284;5.758;2022-10-17T06:25:29;8.38;;;4.07;;
43857;SDS011;29507;51.284;5.758;2022-10-17T06:27:57;6.22;;;3.88;;
43857;SDS011;29507;51.284;5.758;2022-10-17T06:30:24;6.80;;;4.22;;
43857;SDS011;29507;51.284;5.758;2022-10-17T06:32:50;8.57;;;3.67;;
43857;SDS011;29507;51.284;5.758;2022-10-17T06:35:16;10.05;;;3.70;;
43857;SDS011;29507;51.284;5.758;2022-10-17T06:37:42;6.32;;;3.60;;
43857;SDS011;29507;51.284;5.758;2022-10-17T06:40:08;5.90;;;3.75;;
43857;SDS011;29507;51.284;5.758;2022-10-17T06:42:36;8.30;;;3.60;;
43857;SDS011;29507;51.284;5.758;2022-10-17T06:45:02;7.30;;;3.85;;
43857;SDS011;29507;51.284;5.758;2022-10-17T06:47:28;7.10;;;3.88;;
43857;SDS011;29507;51.284;5.758;2022-10-17T06:49:54;5.72;;;3.88;;
43857;SDS011;29507;51.284;5.758;2022-10-17T06:52:19;6.88;;;4.13;;
43857;SDS011;29507;51.284;5.758;2022-10-17T06:54:45;6.88;;;3.83;;
43857;SDS011;29507;51.284;5.758;2022-10-17T06:57:11;7.32;;;3.85;;
43857;SDS011;29507;51.284;5.758;2022-10-17T06:59:36;6.57;;;3.72;;
43857;SDS011;29507;51.284;5.758;2022-10-17T07:02:02;8.68;;;3.33;;
43857;SDS011;29507;51.284;5.758;2022-10-17T07:04:27;6.55;;;3.75;;
43857;SDS011;29507;51.284;5.758;2022-10-17T07:06:53;6.97;;;3.53;;
43857;SDS011;29507;51.284;5.758;2022-10-17T07:09:18;8.95;;;3.92;;
43857;SDS011;29507;51.284;5.758;2022-10-17T07:11:44;7.63;;;3.53;;
43857;SDS011;29507;51.284;5.758;2022-10-17T07:14:10;8.30;;;3.50;;
43857;SDS011;29507;51.284;5.758;2022-10-17T07:16:35;7.43;;;3.35;;
43857;SDS011;29507;51.284;5.758;2022-10-17T07:19:01;10.32;;;3.85;;
43857;SDS011;29507;51.284;5.758;2022-10-17T07:21:27;7.88;;;3.78;;
43857;SDS011;29507;51.284;5.758;2022-10-17T07:23:52;6.68;;;3.50;;
43857;SDS011;29507;51.284;5.758;2022-10-17T07:26:18;7.00;;;3.30;;
43857;SDS011;29507;51.284;5.758;2022-10-17T07:28:45;7.10;;;3.70;;
43857;SDS011;29507;51.284;5.758;2022-10-17T07:31:15;11.90;;;4.25;;
43857;SDS011;29507;51.284;5.758;2022-10-17T07:33:42;7.47;;;3.67;;
43857;SDS011;29507;51.284;5.758;2022-10-17T07:36:09;11.50;;;3.40;;
43857;SDS011;29507;51.284;5.758;2022-10-17T07:38:35;5.85;;;3.22;;
43857;SDS011;29507;51.284;5.758;2022-10-17T07:41:02;6.57;;;3.25;;
43857;SDS011;29507;51.284;5.758;2022-10-17T07:43:29;8.23;;;3.25;;
43857;SDS011;29507;51.284;5.758;2022-10-17T07:45:55;11.05;;;3.47;;
43857;SDS011;29507;51.284;5.758;2022-10-17T07:48:21;6.55;;;3.08;;
43857;SDS011;29507;51.284;5.758;2022-10-17T07:50:48;6.28;;;3.55;;
43857;SDS011;29507;51.284;5.758;2022-10-17T07:53:16;7.85;;;3.20;;
43857;SDS011;29507;51.284;5.758;2022-10-17T07:55:42;8.57;;;2.85;;
43857;SDS011;29507;51.284;5.758;2022-10-17T07:58:10;6.15;;;2.50;;
43857;SDS011;29507;51.284;5.758;2022-10-17T08:00:36;10.85;;;3.80;;
43857;SDS011;29507;51.284;5.758;2022-10-17T08:03:03;6.47;;;3.58;;
43857;SDS011;29507;51.284;5.758;2022-10-17T08:05:29;8.20;;;3.85;;
43857;SDS011;29507;51.284;5.758;2022-10-17T08:07:55;6.43;;;3.15;;
43857;SDS011;29507;51.284;5.758;2022-10-17T08:10:21;5.07;;;2.30;;
43857;SDS011;29507;51.284;5.758;2022-10-17T08:12:53;7.35;;;2.10;;
43857;SDS011;29507;51.284;5.758;2022-10-17T08:15:20;4.45;;;2.60;;
43857;SDS011;29507;51.284;5.758;2022-10-17T08:17:45;4.20;;;2.03;;
43857;SDS011;29507;51.284;5.758;2022-10-17T08:20:11;6.10;;;1.80;;
43857;SDS011;29507;51.284;5.758;2022-10-17T08:22:37;5.50;;;2.42;;
43857;SDS011;29507;51.284;5.758;2022-10-17T08:25:02;5.90;;;2.38;;
43857;SDS011;29507;51.284;5.758;2022-10-17T08:27:28;3.85;;;2.10;;
43857;SDS011;29507;51.284;5.758;2022-10-17T08:29:54;5.15;;;2.05;;
43857;SDS011;29507;51.284;5.758;2022-10-17T08:32:20;4.63;;;2.28;;
43857;SDS011;29507;51.284;5.758;2022-10-17T08:37:14;8.45;;;2.60;;
43857;SDS011;29507;51.284;5.758;2022-10-17T08:39:40;4.05;;;2.30;;
43857;SDS011;29507;51.284;5.758;2022-10-17T08:42:28;6.60;;;2.83;;
43857;SDS011;29507;51.284;5.758;2022-10-17T08:48:12;5.60;;;2.60;;
43857;SDS011;29507;51.284;5.758;2022-10-17T08:50:44;6.07;;;2.00;;
43857;SDS011;29507;51.284;5.758;2022-10-17T08:55:45;5.55;;;2.47;;
43857;SDS011;29507;51.284;5.758;2022-10-17T08:58:12;5.07;;;2.00;;
43857;SDS011;29507;51.284;5.758;2022-10-17T09:00:42;5.15;;;2.35;;
43857;SDS011;29507;51.284;5.758;2022-10-17T09:03:44;5.60;;;2.42;;
43857;SDS011;29507;51.284;5.758;2022-10-17T09:06:33;6.60;;;2.37;;
43857;SDS011;29507;51.284;5.758;2022-10-17T09:17:25;6.03;;;2.63;;
43857;SDS011;29507;51.284;5.758;2022-10-17T09:20:09;8.43;;;2.22;;
43857;SDS011;29507;51.284;5.758;2022-10-17T09:22:42;5.53;;;2.08;;
43857;SDS011;29507;51.284;5.758;2022-10-17T09:25:17;8.13;;;2.40;;
43857;SDS011;29507;51.284;5.758;2022-10-17T09:27:48;5.63;;;1.88;;
43857;SDS011;29507;51.284;5.758;2022-10-17T09:30:33;15.77;;;3.00;;
43857;SDS011;29507;51.284;5.758;2022-10-17T09:33:50;7.25;;;2.22;;
43857;SDS011;29507;51.284;5.758;2022-10-17T09:36:07;4.35;;;2.38;;
43857;SDS011;29507;51.284;5.758;2022-10-17T09:38:44;7.78;;;2.22;;
43857;SDS011;29507;51.284;5.758;2022-10-17T09:41:38;5.97;;;2.10;;
43857;SDS011;29507;51.284;5.758;2022-10-17T09:44:13;3.53;;;2.25;;
43857;SDS011;29507;51.284;5.758;2022-10-17T09:46:48;6.45;;;2.50;;
43857;SDS011;29507;51.284;5.758;2022-10-17T09:49:33;4.88;;;2.22;;
43857;SDS011;29507;51.284;5.758;2022-10-17T09:52:00;4.65;;;2.35;;
43857;SDS011;29507;51.284;5.758;2022-10-17T09:54:31;6.85;;;2.53;;
43857;SDS011;29507;51.284;5.758;2022-10-17T09:57:16;9.20;;;2.55;;
43857;SDS011;29507;51.284;5.758;2022-10-17T09:59:44;6.55;;;2.85;;
43857;SDS011;29507;51.284;5.758;2022-10-17T10:04:59;7.43;;;2.45;;
43857;SDS011;29507;51.284;5.758;2022-10-17T10:07:28;4.90;;;2.83;;
43857;SDS011;29507;51.284;5.758;2022-10-17T10:09:57;12.15;;;2.90;;
43857;SDS011;29507;51.284;5.758;2022-10-17T10:12:28;7.00;;;3.00;;
43857;SDS011;29507;51.284;5.758;2022-10-17T10:14:55;6.45;;;3.08;;
43857;SDS011;29507;51.284;5.758;2022-10-17T10:20:28;8.70;;;3.22;;
43857;SDS011;29507;51.284;5.758;2022-10-17T10:23:15;8.07;;;3.20;;
43857;SDS011;29507;51.284;5.758;2022-10-17T10:25:58;6.03;;;3.70;;
43857;SDS011;29507;51.284;5.758;2022-10-17T10:28:30;11.15;;;3.95;;
43857;SDS011;29507;51.284;5.758;2022-10-17T10:30:58;8.27;;;3.65;;
43857;SDS011;29507;51.284;5.758;2022-10-17T10:33:28;8.43;;;3.80;;
43857;SDS011;29507;51.284;5.758;2022-10-17T10:35:59;8.50;;;3.97;;
43857;SDS011;29507;51.284;5.758;2022-10-17T10:38:27;8.48;;;3.95;;
43857;SDS011;29507;51.284;5.758;2022-10-17T10:40:54;4.70;;;2.72;;
43857;SDS011;29507;51.284;5.758;2022-10-17T10:43:42;7.18;;;3.42;;
43857;SDS011;29507;51.284;5.758;2022-10-17T10:46:16;10.25;;;3.95;;
43857;SDS011;29507;51.284;5.758;2022-10-17T10:49:03;7.70;;;3.85;;
43857;SDS011;29507;51.284;5.758;2022-10-17T10:54:11;8.05;;;3.92;;
43857;SDS011;29507;51.284;5.758;2022-10-17T10:56:45;6.82;;;4.10;;
43857;SDS011;29507;51.284;5.758;2022-10-17T11:04:41;6.35;;;3.78;;
43857;SDS011;29507;51.284;5.758;2022-10-17T11:15:07;8.13;;;3.88;;
43857;SDS011;29507;51.284;5.758;2022-10-17T11:22:57;9.35;;;4.10;;
43857;SDS011;29507;51.284;5.758;2022-10-17T11:25:34;8.40;;;4.00;;
43857;SDS011;29507;51.284;5.758;2022-10-17T11:28:23;7.05;;;4.20;;
43857;SDS011;29507;51.284;5.758;2022-10-17T11:33:28;6.53;;;4.25;;
43857;SDS011;29507;51.284;5.758;2022-10-17T11:36:13;11.55;;;4.63;;
43857;SDS011;29507;51.284;5.758;2022-10-17T11:38:43;6.40;;;3.90;;
43857;SDS011;29507;51.284;5.758;2022-10-17T11:41:32;10.13;;;4.43;;
43857;SDS011;29507;51.284;5.758;2022-10-17T11:44:17;8.73;;;4.70;;
43857;SDS011;29507;51.284;5.758;2022-10-17T11:46:54;6.35;;;4.47;;
43857;SDS011;29507;51.284;5.758;2022-10-17T11:49:26;9.02;;;4.90;;
43857;SDS011;29507;51.284;5.758;2022-10-17T11:52:09;13.18;;;4.30;;
43857;SDS011;29507;51.284;5.758;2022-10-17T11:54:50;9.07;;;4.65;;
43857;SDS011;29507;51.284;5.758;2022-10-17T11:57:29;12.80;;;3.60;;
43857;SDS011;29507;51.284;5.758;2022-10-17T12:02:55;10.23;;;3.63;;
43857;SDS011;29507;51.284;5.758;2022-10-17T12:06:12;8.43;;;4.53;;
43857;SDS011;29507;51.284;5.758;2022-10-17T12:11:19;6.38;;;3.38;;
43857;SDS011;29507;51.284;5.758;2022-10-17T12:22:47;9.65;;;4.07;;
43857;SDS011;29507;51.284;5.758;2022-10-17T12:25:34;7.25;;;3.42;;
43857;SDS011;29507;51.284;5.758;2022-10-17T12:31:26;7.45;;;3.88;;
43857;SDS011;29507;51.284;5.758;2022-10-17T12:38:50;7.38;;;3.90;;
43857;SDS011;29507;51.284;5.758;2022-10-17T12:46:44;10.70;;;4.28;;
43857;SDS011;29507;51.284;5.758;2022-10-17T12:52:24;9.07;;;4.20;;
43857;SDS011;29507;51.284;5.758;2022-10-17T12:57:41;8.10;;;3.53;;
43857;SDS011;29507;51.284;5.758;2022-10-17T13:00:13;8.32;;;3.58;;
43857;SDS011;29507;51.284;5.758;2022-10-17T13:02:43;7.05;;;4.07;;
43857;SDS011;29507;51.284;5.758;2022-10-17T13:05:14;11.18;;;4.47;;
43857;SDS011;29507;51.284;5.758;2022-10-17T13:07:52;5.13;;;3.35;;
43857;SDS011;29507;51.284;5.758;2022-10-17T13:10:24;7.45;;;4.00;;
43857;SDS011;29507;51.284;5.758;2022-10-17T13:12:57;8.77;;;3.33;;
43857;SDS011;29507;51.284;5.758;2022-10-17T13:15:46;8.48;;;3.05;;
43857;SDS011;29507;51.284;5.758;2022-10-17T13:18:23;8.07;;;3.60;;
43857;SDS011;29507;51.284;5.758;2022-10-17T13:21:06;10.63;;;3.75;;
43857;SDS011;29507;51.284;5.758;2022-10-17T13:23:39;7.15;;;3.75;;
43857;SDS011;29507;51.284;5.758;2022-10-17T13:26:15;8.27;;;3.55;;
43857;SDS011;29507;51.284;5.758;2022-10-17T13:29:05;10.32;;;4.07;;
43857;SDS011;29507;51.284;5.758;2022-10-17T13:31:40;7.03;;;3.70;;
43857;SDS011;29507;51.284;5.758;2022-10-17T13:34:15;13.93;;;3.50;;
43857;SDS011;29507;51.284;5.758;2022-10-17T13:36:42;9.73;;;3.47;;
43857;SDS011;29507;51.284;5.758;2022-10-17T13:39:09;6.18;;;3.47;;
43857;SDS011;29507;51.284;5.758;2022-10-17T13:41:39;9.05;;;3.80;;
43857;SDS011;29507;51.284;5.758;2022-10-17T13:44:11;8.75;;;3.63;;
43857;SDS011;29507;51.284;5.758;2022-10-17T13:46:40;9.88;;;3.50;;
43857;SDS011;29507;51.284;5.758;2022-10-17T13:49:11;6.78;;;4.53;;
43857;SDS011;29507;51.284;5.758;2022-10-17T13:51:48;7.85;;;4.47;;
43857;SDS011;29507;51.284;5.758;2022-10-17T13:56:56;7.53;;;4.72;;
43857;SDS011;29507;51.284;5.758;2022-10-17T13:59:25;7.25;;;4.00;;
43857;SDS011;29507;51.284;5.758;2022-10-17T14:01:56;9.18;;;4.43;;
43857;SDS011;29507;51.284;5.758;2022-10-17T14:04:25;8.45;;;4.30;;
43857;SDS011;29507;51.284;5.758;2022-10-17T14:06:51;11.80;;;4.40;;
43857;SDS011;29507;51.284;5.758;2022-10-17T14:12:07;12.93;;;4.60;;
43857;SDS011;29507;51.284;5.758;2022-10-17T14:14:37;11.00;;;5.13;;
43857;SDS011;29507;51.284;5.758;2022-10-17T14:17:14;11.93;;;5.10;;
43857;SDS011;29507;51.284;5.758;2022-10-17T14:19:49;7.88;;;4.65;;
43857;SDS011;29507;51.284;5.758;2022-10-17T14:24:44;8.68;;;4.45;;
43857;SDS011;29507;51.284;5.758;2022-10-17T14:27:30;8.50;;;4.72;;
43857;SDS011;29507;51.284;5.758;2022-10-17T14:30:05;7.57;;;4.43;;
43857;SDS011;29507;51.284;5.758;2022-10-17T14:32:59;8.05;;;4.60;;
43857;SDS011;29507;51.284;5.758;2022-10-17T14:35:27;10.32;;;5.25;;
43857;SDS011;29507;51.284;5.758;2022-10-17T14:37:56;11.45;;;5.40;;
43857;SDS011;29507;51.284;5.758;2022-10-17T14:40:24;9.45;;;5.32;;
43857;SDS011;29507;51.284;5.758;2022-10-17T14:42:53;14.02;;;4.97;;
43857;SDS011;29507;51.284;5.758;2022-10-17T14:47:49;12.90;;;4.80;;
43857;SDS011;29507;51.284;5.758;2022-10-17T14:50:23;8.93;;;5.53;;
43857;SDS011;29507;51.284;5.758;2022-10-17T14:55:35;8.32;;;5.00;;
43857;SDS011;29507;51.284;5.758;2022-10-17T14:58:14;9.55;;;5.38;;
43857;SDS011;29507;51.284;5.758;2022-10-17T15:00:47;9.10;;;5.18;;
43857;SDS011;29507;51.284;5.758;2022-10-17T15:03:13;9.70;;;5.10;;
43857;SDS011;29507;51.284;5.758;2022-10-17T15:05:38;8.63;;;5.93;;
43857;SDS011;29507;51.284;5.758;2022-10-17T15:08:07;8.02;;;5.35;;
43857;SDS011;29507;51.284;5.758;2022-10-17T15:10:38;6.88;;;4.43;;
43857;SDS011;29507;51.284;5.758;2022-10-17T15:13:06;10.27;;;5.00;;
43857;SDS011;29507;51.284;5.758;2022-10-17T15:15:32;13.90;;;4.88;;
43857;SDS011;29507;51.284;5.758;2022-10-17T15:17:58;10.05;;;5.55;;
43857;SDS011;29507;51.284;5.758;2022-10-17T15:20:24;8.05;;;5.28;;
43857;SDS011;29507;51.284;5.758;2022-10-17T15:22:55;8.70;;;4.97;;
43857;SDS011;29507;51.284;5.758;2022-10-17T15:25:23;10.95;;;5.28;;
43857;SDS011;29507;51.284;5.758;2022-10-17T15:27:49;9.18;;;5.35;;
43857;SDS011;29507;51.284;5.758;2022-10-17T15:30:26;12.43;;;6.75;;
43857;SDS011;29507;51.284;5.758;2022-10-17T15:32:54;7.95;;;5.45;;
43857;SDS011;29507;51.284;5.758;2022-10-17T15:35:20;8.77;;;6.35;;
43857;SDS011;29507;51.284;5.758;2022-10-17T15:37:46;8.77;;;5.72;;
43857;SDS011;29507;51.284;5.758;2022-10-17T15:40:17;11.57;;;5.75;;
43857;SDS011;29507;51.284;5.758;2022-10-17T15:42:44;14.43;;;6.78;;
43857;SDS011;29507;51.284;5.758;2022-10-17T15:45:10;16.20;;;7.10;;
43857;SDS011;29507;51.284;5.758;2022-10-17T15:50:05;11.90;;;6.60;;
43857;SDS011;29507;51.284;5.758;2022-10-17T15:52:33;8.98;;;5.90;;
43857;SDS011;29507;51.284;5.758;2022-10-17T15:54:59;15.45;;;6.53;;
43857;SDS011;29507;51.284;5.758;2022-10-17T15:57:26;11.15;;;6.03;;
43857;SDS011;29507;51.284;5.758;2022-10-17T15:59:53;10.70;;;6.83;;
43857;SDS011;29507;51.284;5.758;2022-10-17T16:02:21;12.10;;;6.97;;
43857;SDS011;29507;51.284;5.758;2022-10-17T16:04:48;12.15;;;6.60;;
43857;SDS011;29507;51.284;5.758;2022-10-17T16:07:16;9.68;;;5.60;;
43857;SDS011;29507;51.284;5.758;2022-10-17T16:09:45;12.40;;;6.65;;
43857;SDS011;29507;51.284;5.758;2022-10-17T16:12:14;9.18;;;5.60;;
43857;SDS011;29507;51.284;5.758;2022-10-17T16:14:42;9.65;;;6.05;;
43857;SDS011;29507;51.284;5.758;2022-10-17T16:17:14;10.73;;;5.85;;
43857;SDS011;29507;51.284;5.758;2022-10-17T16:19:40;12.48;;;6.28;;
43857;SDS011;29507;51.284;5.758;2022-10-17T16:22:08;11.63;;;6.00;;
43857;SDS011;29507;51.284;5.758;2022-10-17T16:24:42;8.73;;;5.53;;
43857;SDS011;29507;51.284;5.758;2022-10-17T16:27:08;8.85;;;5.88;;
43857;SDS011;29507;51.284;5.758;2022-10-17T16:29:34;11.20;;;6.40;;
43857;SDS011;29507;51.284;5.758;2022-10-17T16:31:59;10.52;;;5.72;;
43857;SDS011;29507;51.284;5.758;2022-10-17T16:34:25;16.30;;;6.80;;
43857;SDS011;29507;51.284;5.758;2022-10-17T16:36:50;10.50;;;6.10;;
43857;SDS011;29507;51.284;5.758;2022-10-17T16:39:16;10.40;;;6.03;;
43857;SDS011;29507;51.284;5.758;2022-10-17T16:41:41;8.68;;;5.47;;
43857;SDS011;29507;51.284;5.758;2022-10-17T16:44:09;14.82;;;6.72;;
43857;SDS011;29507;51.284;5.758;2022-10-17T16:46:38;13.02;;;6.88;;
43857;SDS011;29507;51.284;5.758;2022-10-17T16:49:04;12.95;;;7.00;;
43857;SDS011;29507;51.284;5.758;2022-10-17T16:51:30;13.00;;;6.95;;
43857;SDS011;29507;51.284;5.758;2022-10-17T16:53:57;13.05;;;6.18;;
43857;SDS011;29507;51.284;5.758;2022-10-17T16:56:24;12.65;;;6.72;;
43857;SDS011;29507;51.284;5.758;2022-10-17T16:58:53;11.10;;;6.45;;
43857;SDS011;29507;51.284;5.758;2022-10-17T17:01:20;12.23;;;7.28;;
43857;SDS011;29507;51.284;5.758;2022-10-17T17:03:47;14.70;;;7.03;;